createdAt,value
2018-12-16T00:01:05.481Z,95829.97
2018-12-16T00:03:34.675Z,95832.78
2018-12-16T00:06:03.953Z,95830.34
2018-12-16T00:08:33.067Z,95836.86
2018-12-16T00:11:02.169Z,95834.20
2018-12-16T00:13:31.359Z,95843.27
2018-12-16T00:16:00.441Z,95840.67
2018-12-16T00:18:29.949Z,95841.44
2018-12-16T00:20:59.043Z,95836.53
2018-12-16T00:23:28.147Z,95831.44
2018-12-16T00:25:57.313Z,95832.63
2018-12-16T00:28:26.469Z,95827.00
2018-12-16T00:30:55.623Z,95818.55
2018-12-16T00:33:24.839Z,95806.36
2018-12-16T00:35:54.008Z,95804.72
2018-12-16T00:38:23.118Z,95804.28
2018-12-16T00:40:52.226Z,95798.36
2018-12-16T00:43:21.326Z,95803.79
2018-12-16T00:45:50.507Z,95813.77
2018-12-16T00:48:19.611Z,95810.74
2018-12-16T00:50:48.706Z,95803.17
2018-12-16T00:53:18.091Z,95798.09
2018-12-16T00:55:47.306Z,95785.75
2018-12-16T00:58:16.494Z,95784.05
2018-12-16T01:00:45.936Z,95773.72
2018-12-16T01:03:15.327Z,95774.90
2018-12-16T01:05:44.509Z,95760.27
2018-12-16T01:08:13.690Z,95757.16
2018-12-16T01:10:42.927Z,95749.48
2018-12-16T01:13:12.106Z,95746.21
2018-12-16T01:15:41.308Z,95739.42
2018-12-16T01:18:10.434Z,95735.13
2018-12-16T01:20:39.525Z,95730.56
2018-12-16T01:23:08.608Z,95729.95
2018-12-16T01:25:37.707Z,95724.03
2018-12-16T01:28:06.860Z,95716.47
2018-12-16T01:30:36.058Z,95716.37
2018-12-16T01:33:05.511Z,95638.81
2018-12-16T01:35:34.612Z,95702.64
2018-12-16T01:38:03.993Z,95691.56
2018-12-16T01:40:33.077Z,95681.80
2018-12-16T01:43:02.183Z,95681.33
2018-12-16T01:45:31.373Z,95677.51
2018-12-16T01:48:00.489Z,95663.41
2018-12-16T01:50:29.742Z,95662.43
2018-12-16T01:52:58.847Z,95664.34
2018-12-16T01:55:27.969Z,95674.16
2018-12-16T01:57:57.045Z,95690.25
2018-12-16T02:00:26.444Z,95688.47
2018-12-16T02:02:55.627Z,95691.78
2018-12-16T02:05:24.726Z,95687.02
2018-12-16T02:07:54.113Z,95668.09
2018-12-16T02:10:23.338Z,95666.19
2018-12-16T02:12:52.408Z,95673.13
2018-12-16T02:15:21.559Z,95671.34
2018-12-16T02:17:50.742Z,95667.98
2018-12-16T02:20:19.915Z,95663.48
2018-12-16T02:22:49.031Z,95651.36
2018-12-16T02:25:18.304Z,95647.33
2018-12-16T02:27:47.363Z,95653.77
2018-12-16T02:30:21.993Z,95640.28
2018-12-16T02:32:51.221Z,95638.08
2018-12-16T02:35:20.289Z,95638.30
2018-12-16T02:37:49.629Z,95629.92
2018-12-16T02:40:18.718Z,95630.05
2018-12-16T02:42:48.014Z,95622.91
2018-12-16T02:45:17.099Z,95630.09
2018-12-16T02:47:49.603Z,95618.19
2018-12-16T02:50:18.848Z,95625.84
2018-12-16T02:52:47.904Z,95624.63
2018-12-16T02:55:17.083Z,95619.80
2018-12-16T02:57:46.189Z,95615.06
2018-12-16T03:00:15.419Z,95613.08
2018-12-16T03:02:44.588Z,95609.24
2018-12-16T03:05:13.780Z,95609.69
2018-12-16T03:07:42.863Z,95605.22
2018-12-16T03:10:12.159Z,95602.27
2018-12-16T03:12:41.322Z,95608.51
2018-12-16T03:15:10.510Z,95603.22
2018-12-16T03:17:39.586Z,95601.49
2018-12-16T03:20:08.973Z,95610.23
2018-12-16T03:22:38.107Z,95602.48
2018-12-16T03:25:07.318Z,95599.15
2018-12-16T03:27:36.551Z,95602.91
2018-12-16T03:30:07.451Z,95604.08
2018-12-16T03:32:36.720Z,95591.12
2018-12-16T03:35:06.114Z,95591.78
2018-12-16T03:37:35.190Z,95581.81
2018-12-16T03:40:04.760Z,95576.42
2018-12-16T03:42:34.531Z,95570.75
2018-12-16T03:45:04.208Z,95579.48
2018-12-16T03:47:33.321Z,95586.27
2018-12-16T03:50:02.703Z,95585.06
2018-12-16T03:52:31.758Z,95575.92
2018-12-16T03:55:00.841Z,95571.44
2018-12-16T03:57:30.000Z,95581.58
2018-12-16T03:59:59.102Z,95570.49
2018-12-16T04:02:28.163Z,95562.47
2018-12-16T04:04:57.379Z,95563.14
2018-12-16T04:07:26.440Z,95561.61
2018-12-16T04:09:56.158Z,95556.01
2018-12-16T04:12:25.238Z,95545.70
2018-12-16T04:14:54.602Z,95550.41
2018-12-16T04:17:23.872Z,95550.43
2018-12-16T04:19:52.999Z,95547.13
2018-12-16T04:22:22.290Z,95547.05
2018-12-16T04:24:51.422Z,95548.91
2018-12-16T04:27:20.540Z,95545.41
2018-12-16T04:29:49.624Z,95548.98
2018-12-16T04:32:18.754Z,95556.00
2018-12-16T04:34:47.872Z,95558.20
2018-12-16T04:37:16.964Z,95557.09
2018-12-16T04:39:46.140Z,95560.39
2018-12-16T04:42:15.231Z,95560.07
2018-12-16T04:44:44.331Z,95558.98
2018-12-16T04:47:13.561Z,95558.38
2018-12-16T04:49:42.743Z,95556.98
2018-12-16T04:52:11.833Z,95558.06
2018-12-16T04:54:40.918Z,95547.34
2018-12-16T04:57:10.012Z,95553.50
2018-12-16T04:59:39.088Z,95548.68
2018-12-16T05:02:08.303Z,95543.45
2018-12-16T05:04:37.435Z,95549.56
2018-12-16T05:07:06.542Z,95549.74
2018-12-16T05:09:35.705Z,95540.08
2018-12-16T05:12:04.816Z,95537.80
2018-12-16T05:14:33.907Z,95537.28
2018-12-16T05:17:02.996Z,95535.45
2018-12-16T05:19:32.087Z,95529.30
2018-12-16T05:22:01.242Z,95531.83
2018-12-16T05:24:30.366Z,95531.66
2018-12-16T05:26:59.739Z,95538.28
2018-12-16T05:29:28.976Z,95531.39
2018-12-16T05:31:58.072Z,95530.70
2018-12-16T05:34:27.259Z,95529.64
2018-12-16T05:36:56.368Z,95523.31
2018-12-16T05:39:25.552Z,95524.39
2018-12-16T05:41:54.646Z,95527.45
2018-12-16T05:44:23.962Z,95522.74
2018-12-16T05:46:53.052Z,95523.24
2018-12-16T05:49:22.154Z,95517.55
2018-12-16T05:51:51.246Z,95523.44
2018-12-16T05:54:20.351Z,95523.75
2018-12-16T05:56:49.593Z,95528.96
2018-12-16T05:59:18.727Z,95516.52
2018-12-16T06:01:48.146Z,95517.24
2018-12-16T06:04:17.509Z,95517.48
2018-12-16T06:06:46.665Z,95517.30
2018-12-16T06:09:15.839Z,95518.77
2018-12-16T06:11:45.145Z,95512.98
2018-12-16T06:14:14.239Z,95513.09
2018-12-16T06:16:43.323Z,95504.41
2018-12-16T06:19:12.425Z,95504.36
2018-12-16T06:21:41.517Z,95502.59
2018-12-16T06:24:10.597Z,95498.84
2018-12-16T06:26:41.067Z,95494.27
2018-12-16T06:29:10.363Z,95491.02
2018-12-16T06:31:39.448Z,95478.84
2018-12-16T06:34:08.643Z,95471.63
2018-12-16T06:36:37.725Z,95473.97
2018-12-16T06:39:07.122Z,95469.39
2018-12-16T06:41:36.312Z,95469.84
2018-12-16T06:44:05.414Z,95472.13
2018-12-16T06:46:34.505Z,95476.10
2018-12-16T06:49:03.802Z,95472.17
2018-12-16T06:51:32.870Z,95467.05
2018-12-16T06:54:02.608Z,95472.55
2018-12-16T06:56:32.086Z,95476.05
2018-12-16T06:59:01.263Z,95465.02
2018-12-16T07:01:30.386Z,95465.02
2018-12-16T07:03:59.521Z,95456.94
2018-12-16T07:06:28.750Z,95457.13
2018-12-16T07:08:57.914Z,95460.80
2018-12-16T07:11:27.024Z,95461.69
2018-12-16T07:13:56.114Z,95459.57
2018-12-16T07:16:25.425Z,95470.58
2018-12-16T07:18:54.588Z,95474.63
2018-12-16T07:21:23.695Z,95473.48
2018-12-16T07:23:52.786Z,95472.89
2018-12-16T07:26:21.895Z,95475.03
2018-12-16T07:28:51.079Z,95481.09
2018-12-16T07:31:20.178Z,95490.06
2018-12-16T07:33:49.361Z,95493.61
2018-12-16T07:36:18.652Z,95485.98
2018-12-16T07:38:47.803Z,95477.52
2018-12-16T07:41:16.979Z,95469.36
2018-12-16T07:43:46.166Z,95465.98
2018-12-16T07:46:15.365Z,95461.95
2018-12-16T07:48:44.595Z,95478.47
2018-12-16T07:51:13.830Z,95483.19
2018-12-16T07:53:42.971Z,95499.38
2018-12-16T07:56:12.182Z,95508.25
2018-12-16T07:58:41.372Z,95506.86
2018-12-16T08:01:10.536Z,95506.02
2018-12-16T08:03:39.694Z,95504.05
2018-12-16T08:06:09.006Z,95506.84
2018-12-16T08:08:38.164Z,95508.53
2018-12-16T08:11:07.530Z,95511.27
2018-12-16T08:13:36.586Z,95514.97
2018-12-16T08:16:05.672Z,95498.38
2018-12-16T08:18:34.817Z,95486.20
2018-12-16T08:21:04.105Z,95483.59
2018-12-16T08:23:33.214Z,95476.77
2018-12-16T08:26:02.319Z,95483.23
2018-12-16T08:28:31.518Z,95484.28
2018-12-16T08:31:00.604Z,95484.80
2018-12-16T08:33:29.801Z,95494.23
2018-12-16T08:35:58.904Z,95493.12
2018-12-16T08:38:27.990Z,95487.98
2018-12-16T08:40:57.080Z,95486.76
2018-12-16T08:43:26.196Z,95491.78
2018-12-16T08:45:55.334Z,95492.81
2018-12-16T08:48:24.426Z,95492.30
2018-12-16T08:50:53.591Z,95482.13
2018-12-16T08:53:22.673Z,95483.91
2018-12-16T08:55:51.778Z,95488.91
2018-12-16T08:58:20.897Z,95483.67
2018-12-16T09:00:50.058Z,95482.05
2018-12-16T09:03:19.211Z,95477.70
2018-12-16T09:05:49.669Z,95475.64
2018-12-16T09:08:18.763Z,95482.01
2018-12-16T09:10:47.898Z,95478.00
2018-12-16T09:13:17.081Z,95480.15
2018-12-16T09:15:46.173Z,95469.84
2018-12-16T09:18:15.398Z,95469.14
2018-12-16T09:20:44.481Z,95474.37
2018-12-16T09:23:13.663Z,95474.06
2018-12-16T09:25:42.762Z,95468.17
2018-12-16T09:28:11.965Z,95477.16
2018-12-16T09:30:41.153Z,95474.88
2018-12-16T09:33:10.275Z,95474.91
2018-12-16T09:35:39.381Z,95472.01
2018-12-16T09:38:08.457Z,95487.04
2018-12-16T09:40:37.571Z,95470.04
2018-12-16T09:43:06.664Z,95461.83
2018-12-16T09:45:35.767Z,95478.08
2018-12-16T09:48:05.079Z,95477.19
2018-12-16T09:50:34.461Z,95465.39
2018-12-16T09:53:03.814Z,95470.27
2018-12-16T09:55:32.935Z,95472.72
2018-12-16T09:58:02.093Z,95465.03
2018-12-16T10:00:31.478Z,95470.52
2018-12-16T10:03:00.610Z,95485.07
2018-12-16T10:05:30.070Z,95470.77
2018-12-16T10:07:59.235Z,95468.29
2018-12-16T10:10:28.366Z,95469.74
2018-12-16T10:12:57.563Z,95438.34
2018-12-16T10:15:26.738Z,95469.95
2018-12-16T10:17:56.064Z,95470.06
2018-12-16T10:20:25.155Z,95468.82
2018-12-16T10:22:54.251Z,95477.03
2018-12-16T10:25:23.528Z,95477.00
2018-12-16T10:27:53.050Z,95487.13
2018-12-16T10:30:22.358Z,95471.91
2018-12-16T10:32:51.495Z,95478.80
2018-12-16T10:35:20.726Z,95467.85
2018-12-16T10:37:49.813Z,95465.31
2018-12-16T10:40:18.942Z,95458.90
2018-12-16T10:42:48.120Z,95453.19
2018-12-16T10:45:17.324Z,95460.01
2018-12-16T10:47:46.550Z,95474.64
2018-12-16T10:50:15.776Z,95474.73
2018-12-16T10:52:44.917Z,95472.87
2018-12-16T10:55:14.137Z,95469.91
2018-12-16T10:57:43.217Z,95459.03
2018-12-16T11:00:18.142Z,95460.81
2018-12-16T11:02:47.346Z,95462.09
2018-12-16T11:05:17.084Z,95462.78
2018-12-16T11:07:46.198Z,95466.11
2018-12-16T11:10:15.348Z,95458.55
2018-12-16T11:12:44.936Z,95461.91
2018-12-16T11:15:14.262Z,95458.47
2018-12-16T11:17:43.646Z,95456.30
2018-12-16T11:20:13.478Z,95451.00
2018-12-16T11:22:42.686Z,95443.34
2018-12-16T11:25:14.199Z,95447.91
2018-12-16T11:27:43.336Z,95446.78
2018-12-16T11:30:12.938Z,95442.25
2018-12-16T11:32:42.106Z,95446.27
2018-12-16T11:35:11.383Z,95440.20
2018-12-16T11:37:40.600Z,95437.04
2018-12-16T11:40:09.833Z,95434.52
2018-12-16T11:42:39.002Z,95423.68
2018-12-16T11:45:08.315Z,95436.45
2018-12-16T11:47:37.434Z,95443.61
2018-12-16T11:50:06.812Z,95446.64
2018-12-16T11:52:36.121Z,95449.22
2018-12-16T11:55:12.511Z,95445.11
2018-12-16T11:57:36.979Z,95449.17
2018-12-16T12:00:07.000Z,95443.92
2018-12-16T12:02:36.193Z,95443.80
2018-12-16T12:05:05.890Z,95445.55
2018-12-16T12:07:35.247Z,95439.82
2018-12-16T12:10:05.329Z,95437.53
2018-12-16T12:12:34.501Z,95436.56
2018-12-16T12:15:03.701Z,95438.02
2018-12-16T12:17:32.905Z,95435.30
2018-12-16T12:20:02.496Z,95425.81
2018-12-16T12:22:31.911Z,95421.88
2018-12-16T12:25:01.095Z,95422.34
2018-12-16T12:27:30.204Z,95418.52
2018-12-16T12:29:59.343Z,95421.63
2018-12-16T12:32:28.491Z,95420.87
2018-12-16T12:34:57.694Z,95426.73
2018-12-16T12:37:26.979Z,95428.17
2018-12-16T12:39:56.064Z,95428.11
2018-12-16T12:42:25.495Z,95450.92
2018-12-16T12:44:54.687Z,95431.66
2018-12-16T12:47:23.871Z,95432.48
2018-12-16T12:49:52.951Z,95434.13
2018-12-16T12:52:22.134Z,95439.06
2018-12-16T12:54:51.521Z,95440.41
2018-12-16T12:57:20.765Z,95449.08
2018-12-16T12:59:49.838Z,95447.80
2018-12-16T13:02:20.155Z,95446.34
2018-12-16T13:04:49.407Z,95453.34
2018-12-16T13:07:18.601Z,95451.55
2018-12-16T13:09:47.687Z,95452.92
2018-12-16T13:12:16.875Z,95454.83
2018-12-16T13:14:46.098Z,95453.00
2018-12-16T13:17:15.282Z,95455.02
2018-12-16T13:19:44.710Z,95451.63
2018-12-16T13:22:13.882Z,95448.64
2018-12-16T13:24:54.566Z,95451.28
2018-12-16T13:27:23.934Z,95451.66
2018-12-16T13:29:53.149Z,95443.89
2018-12-16T13:32:22.274Z,95440.06
2018-12-16T13:34:51.584Z,95444.08
2018-12-16T13:37:20.903Z,95443.99
2018-12-16T13:39:50.230Z,95442.80
2018-12-16T13:42:19.339Z,95449.66
2018-12-16T13:44:48.740Z,95451.91
2018-12-16T13:47:17.862Z,95449.53
2018-12-16T13:49:47.623Z,95458.05
2018-12-16T13:52:18.448Z,95449.72
2018-12-16T13:54:47.776Z,95455.21
2018-12-16T13:57:16.908Z,95460.41
2018-12-16T13:59:46.001Z,95462.87
2018-12-16T14:02:15.389Z,95465.79
2018-12-16T14:04:44.666Z,95465.88
2018-12-16T14:07:13.963Z,95473.02
2018-12-16T14:09:44.077Z,95480.31
2018-12-16T14:12:13.390Z,95483.25
2018-12-16T14:14:42.498Z,95484.98
2018-12-16T14:17:11.600Z,95501.05
2018-12-16T14:19:40.774Z,95498.23
2018-12-16T14:22:10.994Z,95501.22
2018-12-16T14:24:40.235Z,95497.50
2018-12-16T14:27:09.613Z,95507.73
2018-12-16T14:29:38.930Z,95505.05
2018-12-16T14:32:08.029Z,95516.40
2018-12-16T14:34:37.488Z,95522.14
2018-12-16T14:37:07.121Z,95523.44
2018-12-16T14:39:36.526Z,95521.43
2018-12-16T14:42:05.823Z,95519.95
2018-12-16T14:44:35.202Z,95515.00
2018-12-16T14:47:04.635Z,95519.02
2018-12-16T14:49:33.854Z,95502.02
2018-12-16T14:52:03.153Z,95501.77
2018-12-16T14:54:32.275Z,95509.79
2018-12-16T14:57:01.429Z,95512.18
2018-12-16T14:59:30.736Z,95517.73
2018-12-16T15:01:59.943Z,95506.22
2018-12-16T15:04:29.363Z,95513.80
2018-12-16T15:06:58.967Z,95511.71
2018-12-16T15:09:28.160Z,95516.83
2018-12-16T15:11:57.318Z,95523.95
2018-12-16T15:14:26.448Z,95533.66
2018-12-16T15:16:55.596Z,95535.84
2018-12-16T15:19:24.778Z,95534.73
2018-12-16T15:21:54.111Z,95530.28
2018-12-16T15:24:23.310Z,95532.72
2018-12-16T15:26:52.724Z,95536.67
2018-12-16T15:29:22.048Z,95534.55
2018-12-16T15:31:51.292Z,95538.69
2018-12-16T15:34:20.411Z,95537.67
2018-12-16T15:36:49.698Z,95537.30
2018-12-16T15:39:19.028Z,95526.98
2018-12-16T15:41:48.278Z,95519.10
2018-12-16T15:44:17.484Z,95528.04
2018-12-16T15:46:46.682Z,95535.11
2018-12-16T15:49:15.892Z,95543.25
2018-12-16T15:51:44.991Z,95543.22
2018-12-16T15:54:14.091Z,95547.27
2018-12-16T15:56:43.281Z,95542.75
2018-12-16T15:59:12.535Z,95543.48
2018-12-16T16:01:41.695Z,95548.42
2018-12-16T16:04:10.829Z,95563.23
2018-12-16T16:06:39.931Z,95562.77
2018-12-16T16:09:09.088Z,95564.09
2018-12-16T16:11:38.308Z,95567.88
2018-12-16T16:14:07.608Z,95569.47
2018-12-16T16:16:37.023Z,95568.36
2018-12-16T16:19:06.186Z,95563.48
2018-12-16T16:21:35.273Z,95560.50
2018-12-16T16:24:04.803Z,95561.39
2018-12-16T16:26:33.892Z,95559.34
2018-12-16T16:29:03.179Z,95559.66
2018-12-16T16:31:32.275Z,95555.99
2018-12-16T16:34:01.444Z,95559.28
2018-12-16T16:36:30.611Z,95561.50
2018-12-16T16:38:59.739Z,95568.06
2018-12-16T16:41:28.826Z,95575.09
2018-12-16T16:43:57.900Z,95567.19
2018-12-16T16:46:27.152Z,95569.20
2018-12-16T16:48:56.279Z,95562.86
2018-12-16T16:51:25.353Z,95573.41
2018-12-16T16:53:54.551Z,95575.07
2018-12-16T16:56:23.761Z,95574.39
2018-12-16T16:58:52.902Z,95576.16
2018-12-16T17:01:22.023Z,95583.30
2018-12-16T17:03:51.146Z,95582.66
2018-12-16T17:06:20.247Z,95587.95
2018-12-16T17:08:49.368Z,95588.46
2018-12-16T17:11:18.950Z,95589.70
2018-12-16T17:13:48.321Z,95589.41
2018-12-16T17:16:17.540Z,95589.53
2018-12-16T17:18:46.705Z,95589.32
2018-12-16T17:21:15.830Z,95594.84
2018-12-16T17:23:44.954Z,95598.72
2018-12-16T17:26:14.349Z,95608.98
2018-12-16T17:28:43.954Z,95598.91
2018-12-16T17:31:13.456Z,95607.09
2018-12-16T17:33:42.746Z,95608.55
2018-12-16T17:36:11.834Z,95617.43
2018-12-16T17:38:40.948Z,95619.27
2018-12-16T17:41:10.638Z,95619.55
2018-12-16T17:43:39.794Z,95620.75
2018-12-16T17:46:08.992Z,95626.14
2018-12-16T17:48:38.117Z,95619.73
2018-12-16T17:51:07.268Z,95621.14
2018-12-16T17:53:36.382Z,95627.77
2018-12-16T17:56:05.707Z,95623.70
2018-12-16T17:58:34.913Z,95618.26
2018-12-16T18:01:04.183Z,95614.11
2018-12-16T18:03:33.525Z,95612.45
2018-12-16T18:06:04.455Z,95611.92
2018-12-16T18:08:33.851Z,95599.93
2018-12-16T18:11:02.977Z,95600.67
2018-12-16T18:13:32.061Z,95596.80
2018-12-16T18:16:01.177Z,95605.36
2018-12-16T18:18:30.280Z,95606.02
2018-12-16T18:20:59.411Z,95607.35
2018-12-16T18:23:29.845Z,95613.78
2018-12-16T18:25:59.581Z,95609.47
2018-12-16T18:28:28.689Z,95607.67
2018-12-16T18:30:57.783Z,95611.13
2018-12-16T18:33:26.984Z,95609.21
2018-12-16T18:35:56.165Z,95607.37
2018-12-16T18:38:25.327Z,95609.52
2018-12-16T18:40:54.567Z,95604.52
2018-12-16T18:43:23.637Z,95608.25
2018-12-16T18:45:52.795Z,95614.22
2018-12-16T18:48:21.870Z,95608.33
2018-12-16T18:50:53.091Z,95611.53
2018-12-16T18:53:22.167Z,95613.63
2018-12-16T18:55:51.261Z,95611.70
2018-12-16T18:58:20.378Z,95616.45
2018-12-16T19:00:49.579Z,95620.98
2018-12-16T19:03:18.682Z,95622.17
2018-12-16T19:05:47.792Z,95622.38
2018-12-16T19:08:16.920Z,95624.56
2018-12-16T19:10:46.015Z,95624.80
2018-12-16T19:13:15.363Z,95618.59
2018-12-16T19:15:44.648Z,95614.87
2018-12-16T19:18:13.858Z,95618.08
2018-12-16T19:20:43.082Z,95614.78
2018-12-16T19:23:12.287Z,95609.72
2018-12-16T19:25:42.290Z,95606.11
2018-12-16T19:28:11.594Z,95612.50
2018-12-16T19:30:40.720Z,95617.42
2018-12-16T19:33:09.830Z,95628.13
2018-12-16T19:35:39.630Z,95627.30
2018-12-16T19:38:08.782Z,95630.03
2018-12-16T19:40:38.056Z,95632.13
2018-12-16T19:43:07.353Z,95632.15
2018-12-16T19:45:36.484Z,95633.25
2018-12-16T19:48:05.953Z,95632.80
2018-12-16T19:50:35.368Z,95629.42
2018-12-16T19:53:04.720Z,95629.69
2018-12-16T19:55:33.789Z,95634.55
2018-12-16T19:58:02.973Z,95634.25
2018-12-16T20:00:32.088Z,95645.82
2018-12-16T20:03:01.285Z,95640.82
2018-12-16T20:05:32.416Z,95650.85
2018-12-16T20:08:01.534Z,95645.66
2018-12-16T20:10:30.635Z,95648.27
2018-12-16T20:12:59.948Z,95656.90
2018-12-16T20:15:29.124Z,95658.70
2018-12-16T20:17:58.232Z,95662.55
2018-12-16T20:20:28.307Z,95666.63
2018-12-16T20:22:57.635Z,95665.66
2018-12-16T20:25:26.887Z,95665.50
2018-12-16T20:27:56.180Z,95668.59
2018-12-16T20:30:25.287Z,95668.33
2018-12-16T20:32:54.387Z,95668.83
2018-12-16T20:35:23.906Z,95668.98
2018-12-16T20:37:53.389Z,95663.94
2018-12-16T20:40:22.630Z,95666.17
2018-12-16T20:42:51.801Z,95669.06
2018-12-16T20:45:21.112Z,95672.10
2018-12-16T20:47:50.212Z,95675.67
2018-12-16T20:50:19.287Z,95671.66
2018-12-16T20:52:48.395Z,95676.97
2018-12-16T20:55:17.508Z,95675.33
2018-12-16T20:57:48.473Z,95676.41
2018-12-16T21:00:17.583Z,95674.05
2018-12-16T21:02:46.695Z,95664.50
2018-12-16T21:05:15.771Z,95663.58
2018-12-16T21:07:44.995Z,95661.84
2018-12-16T21:10:14.187Z,95663.14
2018-12-16T21:12:48.678Z,95662.52
2018-12-16T21:15:23.019Z,95661.24
2018-12-16T21:17:57.579Z,95661.42
2018-12-16T21:20:26.655Z,95667.27
2018-12-16T21:22:55.755Z,95664.05
2018-12-16T21:25:24.900Z,95661.79
2018-12-16T21:27:53.986Z,95661.23
2018-12-16T21:30:23.373Z,95658.95
2018-12-16T21:32:52.503Z,95656.29
2018-12-16T21:35:21.614Z,95650.81
2018-12-16T21:37:51.378Z,95657.22
2018-12-16T21:40:27.051Z,95651.63
2018-12-16T21:42:56.169Z,95650.18
2018-12-16T21:45:25.351Z,95649.81
2018-12-16T21:47:54.476Z,95645.88
2018-12-16T21:50:23.992Z,95653.89
2018-12-16T21:52:53.079Z,95651.53
2018-12-16T21:55:22.197Z,95646.95
2018-12-16T21:57:51.398Z,95651.34
2018-12-16T22:00:20.599Z,95648.32
2018-12-16T22:02:49.739Z,95648.76
2018-12-16T22:05:20.887Z,95645.59
2018-12-16T22:07:50.595Z,95649.03
2018-12-16T22:10:19.965Z,95650.31
2018-12-16T22:12:49.673Z,95650.69
2018-12-16T22:15:18.839Z,95648.26
2018-12-16T22:17:48.255Z,95650.81
2018-12-16T22:20:17.421Z,95654.88
2018-12-16T22:22:46.669Z,95649.37
2018-12-16T22:25:15.905Z,95651.45
2018-12-16T22:27:45.133Z,95661.56
2018-12-16T22:30:14.332Z,95657.92
2018-12-16T22:32:43.551Z,95653.73
2018-12-16T22:35:12.897Z,95661.27
2018-12-16T22:37:42.049Z,95660.41
2018-12-16T22:40:11.399Z,95660.07
2018-12-16T22:42:40.930Z,95666.99
2018-12-16T22:45:10.134Z,95671.44
2018-12-16T22:47:39.464Z,95674.45
2018-12-16T22:50:08.928Z,95673.30
2018-12-16T22:52:38.972Z,95673.73
2018-12-16T22:55:08.198Z,95672.06
2018-12-16T22:57:37.363Z,95676.68
2018-12-16T23:00:10.667Z,95680.44
2018-12-16T23:02:39.914Z,95679.52
2018-12-16T23:05:09.348Z,95680.41
2018-12-16T23:07:38.545Z,95675.12
2018-12-16T23:10:08.154Z,95676.58
2018-12-16T23:12:37.298Z,95676.16
2018-12-16T23:15:07.759Z,95670.41
2018-12-16T23:17:36.895Z,95671.72
2018-12-16T23:20:12.101Z,95679.59
2018-12-16T23:22:41.316Z,95680.23
2018-12-16T23:25:11.019Z,95678.74
2018-12-16T23:27:40.179Z,95680.23
2018-12-16T23:30:10.235Z,95677.36
2018-12-16T23:32:39.495Z,95671.44
2018-12-16T23:35:08.896Z,95674.38
2018-12-16T23:37:39.525Z,95679.84
2018-12-16T23:40:08.848Z,95674.31
2018-12-16T23:42:37.977Z,95672.11
2018-12-16T23:45:08.668Z,95672.19
2018-12-16T23:47:37.775Z,95665.73
2018-12-16T23:50:07.821Z,95670.02
2018-12-16T23:52:36.929Z,95666.94
2018-12-16T23:55:06.323Z,95670.88
2018-12-16T23:57:35.854Z,95660.48
